Time;durP1;ratioP1;P1;durP2;ratioP2;P2;SDS_P1;SDS_P2;PMS_P1;PMS_P2;Temp;Humidity;BMP_temperature;BMP_pressure;BME280_temperature;BME280_humidity;BME280_pressure;Samples;Min_cycle;Max_cycle;Signal;HPM_P1;HPM_P2
2023/02/15 00:02:13;;;;;;;32.10;23.50;;;2.90;99.90;;;;;;5036500;28;20239;-88
2023/02/15 00:04:47;;;;;;;28.07;21.07;;;2.90;99.90;;;;;;5036033;28;20181;-88
2023/02/15 00:07:15;;;;;;;32.33;22.70;;;2.90;99.90;;;;;;5038390;28;20184;-89
2023/02/15 00:09:41;;;;;;;29.27;22.60;;;3.00;99.90;;;;;;5038221;28;20184;-89
2023/02/15 00:12:07;;;;;;;26.80;21.27;;;3.00;99.90;;;;;;5038298;28;20205;-92
2023/02/15 00:14:33;;;;;;;28.33;21.97;;;3.00;99.90;;;;;;5037187;28;20181;-87
2023/02/15 00:16:59;;;;;;;33.93;23.00;;;3.00;99.90;;;;;;5037688;28;20236;-88
2023/02/15 00:19:25;;;;;;;28.13;21.70;;;2.90;99.90;;;;;;5038363;28;20220;-89
2023/02/15 00:21:51;;;;;;;28.63;21.60;;;2.90;99.90;;;;;;5037801;28;20185;-88
2023/02/15 00:24:18;;;;;;;27.20;20.77;;;3.00;99.90;;;;;;5036462;28;20244;-92
2023/02/15 00:26:45;;;;;;;27.43;21.77;;;3.00;99.90;;;;;;5037269;28;20201;-88
2023/02/15 00:29:13;;;;;;;28.90;21.70;;;3.10;99.90;;;;;;5035985;28;20333;-88
2023/02/15 00:31:39;;;;;;;29.47;22.57;;;3.10;99.90;;;;;;5035583;28;20177;-87
2023/02/15 00:34:10;;;;;;;28.07;21.10;;;3.00;99.90;;;;;;5036200;28;20186;-89
2023/02/15 00:36:36;;;;;;;29.10;21.80;;;3.00;99.90;;;;;;5043684;28;20224;-90
2023/02/15 00:39:04;;;;;;;31.97;23.03;;;3.00;99.90;;;;;;5050337;28;20181;-88
2023/02/15 00:41:30;;;;;;;29.10;23.13;;;3.00;99.90;;;;;;5037098;28;20177;-88
2023/02/15 00:43:56;;;;;;;28.30;21.37;;;3.00;99.90;;;;;;5036933;28;20236;-89
2023/02/15 00:46:21;;;;;;;28.73;21.07;;;3.10;99.90;;;;;;5036565;28;20268;-88
2023/02/15 00:48:47;;;;;;;27.53;21.67;;;3.10;99.90;;;;;;5036682;28;20173;-88
2023/02/15 00:51:13;;;;;;;29.13;22.13;;;3.00;99.90;;;;;;5035798;28;20192;-89
2023/02/15 00:53:38;;;;;;;26.63;20.53;;;3.00;99.90;;;;;;5035471;28;20212;-87
2023/02/15 00:56:04;;;;;;;24.93;19.80;;;2.80;99.90;;;;;;5017295;28;20808;-89
2023/02/15 00:58:29;;;;;;;27.60;21.47;;;2.80;99.90;;;;;;5015460;28;20236;-87
2023/02/15 01:01:06;;;;;;;23.63;17.70;;;2.70;99.90;;;;;;5016276;28;20188;-87
2023/02/15 01:03:32;;;;;;;24.47;20.23;;;2.70;99.90;;;;;;5016120;28;20716;-88
2023/02/15 01:05:57;;;;;;;23.23;18.50;;;2.70;99.90;;;;;;5016856;28;20240;-88
2023/02/15 01:08:23;;;;;;;22.27;18.23;;;2.80;99.90;;;;;;5016905;28;20185;-90
2023/02/15 01:10:49;;;;;;;30.30;20.23;;;2.90;99.90;;;;;;5018039;28;20178;-88
2023/02/15 01:13:15;;;;;;;27.77;20.87;;;2.90;99.90;;;;;;5019927;28;20189;-88
2023/02/15 01:15:41;;;;;;;26.10;19.90;;;2.70;99.90;;;;;;5024477;28;20697;-89
2023/02/15 01:18:07;;;;;;;24.57;18.97;;;2.60;99.90;;;;;;5040190;28;20652;-89
2023/02/15 01:20:36;;;;;;;26.97;20.37;;;2.70;99.90;;;;;;5039731;28;20173;-88
2023/02/15 01:23:02;;;;;;;29.67;20.77;;;2.80;99.90;;;;;;5040888;28;20193;-89
2023/02/15 01:25:28;;;;;;;28.83;21.70;;;2.80;99.90;;;;;;5039637;28;20188;-88
2023/02/15 01:27:54;;;;;;;30.83;21.83;;;2.90;99.90;;;;;;5040514;28;20173;-89
2023/02/15 01:30:19;;;;;;;27.07;20.77;;;2.70;99.90;;;;;;5032184;28;20419;-88
2023/02/15 01:32:45;;;;;;;28.53;22.27;;;2.60;99.90;;;;;;5020443;28;20201;-90
2023/02/15 01:35:11;;;;;;;30.87;21.27;;;2.60;99.90;;;;;;5018541;28;20178;-88
2023/02/15 01:37:37;;;;;;;41.47;22.40;;;2.70;99.90;;;;;;5019725;28;20209;-87
2023/02/15 01:40:07;;;;;;;28.87;21.23;;;2.50;99.90;;;;;;5050730;28;20271;-88
2023/02/15 01:42:33;;;;;;;31.37;20.80;;;2.40;99.90;;;;;;5026198;28;20291;-89
2023/02/15 01:45:01;;;;;;;33.83;20.73;;;2.20;99.90;;;;;;5019844;28;20174;-88
2023/02/15 01:48:01;;;;;;;32.93;21.33;;;2.10;99.90;;;;;;5024538;28;20188;-87
2023/02/15 01:50:41;;;;;;;27.00;19.80;;;2.10;99.90;;;;;;5038533;28;20201;-90
2023/02/15 01:53:22;;;;;;;26.13;21.23;;;2.10;99.90;;;;;;5027767;28;20201;-88
2023/02/15 01:56:01;;;;;;;24.23;18.13;;;2.20;99.90;;;;;;5018579;28;20213;-88
2023/02/15 01:58:29;;;;;;;25.73;19.27;;;2.20;99.90;;;;;;5020046;28;20212;-87
2023/02/15 02:00:56;;;;;;;33.60;20.70;;;2.40;99.90;;;;;;5019900;28;20237;-89
2023/02/15 02:03:43;;;;;;;23.97;19.67;;;2.50;99.90;;;;;;5019578;28;20271;-86
2023/02/15 02:06:09;;;;;;;23.80;18.80;;;2.20;99.90;;;;;;5020519;28;20250;-86
2023/02/15 02:08:35;;;;;;;26.33;19.53;;;2.30;99.90;;;;;;5020257;28;20193;-88
2023/02/15 02:11:01;;;;;;;26.60;20.00;;;2.30;99.90;;;;;;5037115;28;20211;-88
2023/02/15 02:13:27;;;;;;;32.40;22.83;;;2.10;99.90;;;;;;5039085;28;20208;-87
2023/02/15 02:16:06;;;;;;;30.53;21.70;;;2.00;99.90;;;;;;5038651;28;20204;-88
2023/02/15 02:19:13;;;;;;;24.73;19.17;;;1.90;99.90;;;;;;5040918;28;20169;-89
2023/02/15 02:22:13;;;;;;;27.73;20.90;;;1.90;99.90;;;;;;5039399;28;20223;-89
2023/02/15 02:24:54;;;;;;;27.50;19.20;;;1.90;99.90;;;;;;5018338;28;20182;-89
2023/02/15 02:27:30;;;;;;;26.43;18.83;;;2.10;99.90;;;;;;5018774;28;20176;-89
2023/02/15 02:30:20;;;;;;;24.90;18.97;;;2.30;99.90;;;;;;5018314;28;20240;-89
2023/02/15 02:33:13;;;;;;;28.47;19.60;;;2.50;99.90;;;;;;5019210;28;20205;-89
2023/02/15 02:35:47;;;;;;;27.57;20.00;;;2.60;99.90;;;;;;4998486;28;20199;-88
2023/02/15 02:38:40;;;;;;;27.97;20.43;;;2.60;99.90;;;;;;5042268;28;20173;-91
2023/02/15 02:41:30;;;;;;;25.17;19.43;;;2.40;99.90;;;;;;5058235;28;20169;-91
2023/02/15 02:44:21;;;;;;;25.53;20.33;;;2.60;99.90;;;;;;5057262;28;20200;-91
2023/02/15 02:47:18;;;;;;;22.93;20.43;;;2.80;99.90;;;;;;5049297;28;20170;-88
2023/02/15 02:49:44;;;;;;;27.00;20.00;;;2.70;99.90;;;;;;5053986;28;20223;-90
2023/02/15 02:52:45;;;;;;;23.57;18.60;;;2.60;99.90;;;;;;5029378;28;20548;-88
2023/02/15 02:55:33;;;;;;;29.03;20.23;;;2.60;99.90;;;;;;5037444;28;20176;-87
2023/02/15 02:58:18;;;;;;;26.37;20.50;;;2.70;99.90;;;;;;5038762;28;20271;-89
2023/02/15 03:00:57;;;;;;;27.00;18.93;;;2.30;99.90;;;;;;5039546;28;20187;-88
2023/02/15 03:03:41;;;;;;;25.40;19.13;;;2.20;99.90;;;;;;5039218;28;20575;-89
2023/02/15 03:06:12;;;;;;;21.77;18.00;;;2.30;99.90;;;;;;5037799;28;20280;-90
2023/02/15 03:08:43;;;;;;;23.70;18.10;;;2.30;99.90;;;;;;5038492;28;20306;-87
2023/02/15 03:11:10;;;;;;;24.93;17.67;;;2.30;99.90;;;;;;5040010;28;20185;-88
2023/02/15 03:13:36;;;;;;;25.03;18.57;;;2.30;99.90;;;;;;5039141;28;20208;-88
2023/02/15 03:19:13;;;;;;;20.20;17.23;;;2.30;99.90;;;;;;5037586;28;20172;-86
2023/02/15 03:21:57;;;;;;;23.67;18.13;;;2.40;99.90;;;;;;5036153;28;20193;-89
2023/02/15 03:24:28;;;;;;;23.10;18.23;;;2.30;99.90;;;;;;5017632;28;20256;-86
2023/02/15 03:26:55;;;;;;;22.20;16.57;;;2.10;99.90;;;;;;5017035;28;20162;-88
2023/02/15 03:29:24;;;;;;;20.23;17.10;;;2.20;99.90;;;;;;5018195;28;20592;-88
2023/02/15 03:31:54;;;;;;;25.40;18.50;;;2.10;99.90;;;;;;5019022;28;20193;-88
2023/02/15 03:34:20;;;;;;;23.70;17.07;;;1.90;99.90;;;;;;5019386;28;20244;-87
2023/02/15 03:36:49;;;;;;;22.97;17.63;;;1.80;99.90;;;;;;5017393;28;20684;-88
2023/02/15 03:39:22;;;;;;;20.30;15.63;;;1.70;99.90;;;;;;5019973;28;20272;-88
2023/02/15 03:42:03;;;;;;;20.97;16.53;;;1.90;99.90;;;;;;5036825;28;20281;-89
2023/02/15 03:44:31;;;;;;;21.97;16.40;;;2.00;99.90;;;;;;5036565;28;20177;-89
2023/02/15 03:47:08;;;;;;;21.57;16.90;;;2.10;99.90;;;;;;5037575;28;20207;-89
2023/02/15 03:49:47;;;;;;;22.23;16.87;;;2.30;99.90;;;;;;5037965;28;20209;-89
2023/02/15 03:52:14;;;;;;;19.53;16.43;;;2.50;99.90;;;;;;5036602;28;20228;-88
2023/02/15 03:54:43;;;;;;;18.47;15.57;;;2.60;99.90;;;;;;5036825;28;20232;-88
2023/02/15 04:03:14;;;;;;;22.73;17.27;;;2.60;99.90;;;;;;5037586;28;20311;-88
2023/02/15 04:05:41;;;;;;;19.70;15.83;;;2.30;99.90;;;;;;5037896;28;20180;-88
2023/02/15 04:08:08;;;;;;;22.27;17.90;;;2.30;99.90;;;;;;5038276;28;20181;-88
2023/02/15 04:10:52;;;;;;;21.47;16.53;;;2.20;99.90;;;;;;5038199;28;20201;-88
2023/02/15 04:13:23;;;;;;;22.67;17.37;;;2.00;99.90;;;;;;5027496;28;20197;-89
2023/02/15 04:16:05;;;;;;;21.43;17.27;;;1.80;99.90;;;;;;5017336;28;20582;-89
2023/02/15 04:26:59;;;;;;;19.90;16.03;;;1.50;99.90;;;;;;5017264;28;20242;-89
2023/02/15 04:29:26;;;;;;;22.90;17.50;;;1.40;99.90;;;;;;5024288;28;20185;-87
2023/02/15 04:31:53;;;;;;;25.00;18.03;;;1.60;99.90;;;;;;5036697;28;20247;-87
2023/02/15 04:34:19;;;;;;;24.77;17.97;;;1.70;99.90;;;;;;5037985;28;20207;-88
2023/02/15 04:36:45;;;;;;;22.57;16.97;;;1.90;99.90;;;;;;5047946;28;20201;-91
2023/02/15 04:39:14;;;;;;;24.13;18.30;;;1.90;99.90;;;;;;5049108;28;20173;-91
2023/02/15 04:41:40;;;;;;;21.83;16.70;;;1.90;99.90;;;;;;5045783;28;20187;-88
2023/02/15 04:44:05;;;;;;;19.83;15.63;;;2.00;99.90;;;;;;5037781;28;20197;-88
2023/02/15 04:46:31;;;;;;;20.73;16.27;;;2.20;99.90;;;;;;5036047;28;20606;-88
2023/02/15 04:48:57;;;;;;;21.03;16.23;;;2.30;99.90;;;;;;5036134;28;20192;-89
2023/02/15 04:51:23;;;;;;;21.37;16.80;;;2.40;99.90;;;;;;5037483;28;20291;-89
2023/02/15 04:53:49;;;;;;;18.37;14.73;;;2.20;99.90;;;;;;5038584;28;20220;-89
2023/02/15 04:56:15;;;;;;;21.10;16.57;;;2.30;99.90;;;;;;5036880;28;20292;-88
2023/02/15 04:58:41;;;;;;;21.90;15.30;;;2.20;99.90;;;;;;5019693;28;20265;-88
2023/02/15 05:01:10;;;;;;;21.30;16.87;;;2.10;99.90;;;;;;5039084;28;20200;-91
2023/02/15 05:03:36;;;;;;;20.23;16.43;;;2.30;99.90;;;;;;5044207;28;20604;-87
2023/02/15 05:06:03;;;;;;;20.03;15.17;;;2.40;99.90;;;;;;5036263;28;20199;-89
2023/02/15 05:08:30;;;;;;;21.70;16.57;;;2.40;99.90;;;;;;5036025;28;20238;-88
2023/02/15 05:10:55;;;;;;;18.90;15.53;;;2.50;99.90;;;;;;5035703;28;20184;-87
2023/02/15 05:13:21;;;;;;;19.20;15.83;;;2.50;99.90;;;;;;5034010;28;20208;-90
2023/02/15 05:15:48;;;;;;;17.77;15.87;;;2.50;99.90;;;;;;5035447;28;20209;-89
2023/02/15 05:18:15;;;;;;;21.17;17.33;;;2.40;99.90;;;;;;5035170;28;20787;-87
2023/02/15 05:20:40;;;;;;;19.77;15.37;;;2.30;99.90;;;;;;5037754;28;20191;-88
2023/02/15 05:23:06;;;;;;;19.37;15.63;;;2.10;99.90;;;;;;5037098;28;20272;-89
2023/02/15 05:28:19;;;;;;;21.93;16.53;;;2.40;99.90;;;;;;5019053;28;20220;-87
2023/02/15 05:30:45;;;;;;;19.20;16.53;;;2.40;99.90;;;;;;5017959;28;20182;-89
2023/02/15 05:33:11;;;;;;;20.17;15.10;;;2.10;99.90;;;;;;5027604;28;20193;-88
2023/02/15 05:35:37;;;;;;;22.03;17.50;;;2.10;99.90;;;;;;5035990;28;20256;-88
2023/02/15 05:38:02;;;;;;;22.23;16.77;;;2.10;99.90;;;;;;5034837;28;20172;-87
2023/02/15 05:40:28;;;;;;;19.50;15.90;;;2.00;99.90;;;;;;5023045;28;20188;-88
2023/02/15 05:42:54;;;;;;;21.63;17.30;;;1.90;99.90;;;;;;5016153;28;20287;-87
2023/02/15 05:45:19;;;;;;;19.90;16.87;;;1.70;99.90;;;;;;5015000;28;20185;-88
2023/02/15 05:47:45;;;;;;;23.33;17.43;;;1.70;99.90;;;;;;5029238;28;20185;-87
2023/02/15 05:50:14;;;;;;;26.57;17.53;;;1.60;99.90;;;;;;5033428;28;20539;-86
2023/02/15 05:52:39;;;;;;;20.77;15.63;;;1.40;99.90;;;;;;5033533;28;20825;-85
2023/02/15 05:55:05;;;;;;;26.27;18.70;;;1.30;99.90;;;;;;5023266;28;20197;-85
2023/02/15 05:57:31;;;;;;;23.27;17.97;;;1.20;99.90;;;;;;5028948;28;20236;-87
2023/02/15 05:59:57;;;;;;;29.60;22.60;;;1.20;99.90;;;;;;5036518;28;20177;-87
2023/02/15 06:02:22;;;;;;;19.97;15.97;;;1.40;99.90;;;;;;5024618;28;20705;-88
2023/02/15 06:04:48;;;;;;;26.73;19.67;;;1.60;99.90;;;;;;5025523;28;20667;-88
2023/02/15 06:07:14;;;;;;;23.07;16.33;;;1.80;99.90;;;;;;5040742;28;20208;-88
2023/02/15 06:09:39;;;;;;;43.73;30.53;;;2.00;99.90;;;;;;5038163;28;20189;-87
2023/02/15 06:12:05;;;;;;;24.47;17.63;;;2.10;99.90;;;;;;5039990;28;20200;-88
2023/02/15 06:14:31;;;;;;;23.90;16.80;;;2.00;99.90;;;;;;5037518;28;20196;-87
2023/02/15 06:16:56;;;;;;;23.30;17.40;;;2.10;99.90;;;;;;5040161;28;20211;-87
2023/02/15 06:19:22;;;;;;;22.50;17.47;;;2.30;99.90;;;;;;5041318;28;20196;-87
2023/02/15 06:21:49;;;;;;;20.17;15.17;;;2.30;99.90;;;;;;5042049;28;20161;-86
2023/02/15 06:24:15;;;;;;;27.60;23.37;;;2.50;99.90;;;;;;5040366;28;20199;-87
2023/02/15 06:26:40;;;;;;;21.77;17.37;;;2.50;99.90;;;;;;5040022;28;20185;-85
2023/02/15 06:29:06;;;;;;;20.23;16.13;;;2.50;99.90;;;;;;5038208;28;20189;-87
2023/02/15 06:31:33;;;;;;;22.60;15.53;;;2.50;99.90;;;;;;5036870;28;20836;-87
2023/02/15 06:34:02;;;;;;;21.47;16.30;;;2.50;99.90;;;;;;5034540;28;20233;-87
2023/02/15 06:36:28;;;;;;;21.60;15.83;;;2.60;99.90;;;;;;5019531;28;20248;-88
2023/02/15 06:38:54;;;;;;;23.13;17.13;;;2.60;99.90;;;;;;5021035;28;20170;-88
2023/02/15 06:41:20;;;;;;;42.97;32.10;;;2.60;99.90;;;;;;5019557;28;20185;-87
2023/02/15 06:43:46;;;;;;;22.47;16.97;;;2.60;99.90;;;;;;5019077;28;20475;-87
2023/02/15 06:46:11;;;;;;;23.37;16.47;;;2.60;99.90;;;;;;5028853;28;20225;-91
2023/02/15 06:48:37;;;;;;;23.27;15.50;;;2.60;99.90;;;;;;5030642;28;20201;-87
2023/02/15 06:51:03;;;;;;;18.73;14.83;;;2.50;99.90;;;;;;5022359;28;20671;-89
2023/02/15 06:53:29;;;;;;;21.37;13.87;;;2.20;99.90;;;;;;5033336;28;20671;-89
2023/02/15 06:56:02;;;;;;;17.27;14.33;;;1.80;99.90;;;;;;5022440;28;20275;-89
2023/02/15 06:58:28;;;;;;;23.27;15.07;;;1.40;99.90;;;;;;5025212;28;20204;-89
2023/02/15 07:00:54;;;;;;;20.83;14.00;;;1.10;99.90;;;;;;5038120;28;20181;-87
2023/02/15 07:03:20;;;;;;;20.53;14.67;;;1.20;99.90;;;;;;5032782;28;20228;-87
2023/02/15 07:05:47;;;;;;;18.53;14.40;;;1.50;99.90;;;;;;5022558;28;20271;-87
2023/02/15 07:08:13;;;;;;;20.10;15.00;;;1.60;99.90;;;;;;5035873;28;20182;-88
2023/02/15 07:10:38;;;;;;;20.43;15.63;;;1.60;99.90;;;;;;5036670;28;20388;-88
2023/02/15 07:13:04;;;;;;;21.07;14.57;;;1.70;99.90;;;;;;5036758;28;20209;-89
2023/02/15 07:15:30;;;;;;;21.60;14.70;;;1.70;99.90;;;;;;5029456;28;20185;-87
2023/02/15 07:17:58;;;;;;;26.43;23.73;;;1.50;99.90;;;;;;5019826;28;20209;-87
2023/02/15 07:20:24;;;;;;;26.63;21.33;;;1.60;99.90;;;;;;5021492;28;20181;-88
2023/02/15 07:22:50;;;;;;;19.43;15.33;;;1.60;99.90;;;;;;5038769;28;20204;-88
2023/02/15 07:25:16;;;;;;;20.20;14.23;;;1.60;99.90;;;;;;5037856;28;20242;-89
2023/02/15 07:27:43;;;;;;;18.30;13.97;;;1.60;99.90;;;;;;5038353;28;20204;-90
2023/02/15 07:30:11;;;;;;;24.67;15.43;;;1.30;99.90;;;;;;5023435;28;20624;-88
2023/02/15 07:32:36;;;;;;;25.33;16.97;;;1.10;99.90;;;;;;5032626;28;20263;-87
2023/02/15 07:35:02;;;;;;;24.17;15.97;;;1.00;99.90;;;;;;5016464;28;20185;-88
2023/02/15 07:37:28;;;;;;;22.93;16.30;;;1.00;99.90;;;;;;5018361;28;20226;-90
2023/02/15 07:39:54;;;;;;;25.47;16.90;;;0.80;99.90;;;;;;5018406;28;20185;-86
2023/02/15 07:42:20;;;;;;;23.83;16.93;;;0.90;99.90;;;;;;5021247;28;20216;-88
2023/02/15 07:44:46;;;;;;;21.70;15.03;;;1.10;99.90;;;;;;5023444;28;20472;-88
2023/02/15 07:47:12;;;;;;;26.10;16.60;;;1.20;99.90;;;;;;5018999;28;20190;-90
2023/02/15 07:49:38;;;;;;;22.07;16.00;;;1.20;99.90;;;;;;5023282;28;20181;-88
2023/02/15 07:52:03;;;;;;;22.50;15.97;;;1.30;99.90;;;;;;5038030;28;20528;-88
2023/02/15 07:54:29;;;;;;;22.00;15.13;;;1.30;99.90;;;;;;5034752;28;20566;-87
2023/02/15 07:56:55;;;;;;;25.07;16.60;;;1.20;99.90;;;;;;5037396;28;20784;-88
2023/02/15 07:59:21;;;;;;;29.83;19.77;;;1.40;99.90;;;;;;5030518;28;20233;-88
2023/02/15 08:01:46;;;;;;;37.60;26.57;;;1.50;99.90;;;;;;5030404;28;20211;-87
2023/02/15 08:04:12;;;;;;;26.53;19.87;;;1.60;99.90;;;;;;5022753;28;20190;-89
2023/02/15 08:06:38;;;;;;;21.67;16.87;;;1.60;99.90;;;;;;5033583;28;20189;-86
2023/02/15 08:09:06;;;;;;;22.63;17.10;;;1.70;99.90;;;;;;5016707;28;20276;-89
2023/02/15 08:11:39;;;;;;;26.67;19.53;;;1.70;99.90;;;;;;5034204;28;20192;-88
2023/02/15 08:14:13;;;;;;;24.33;19.77;;;1.80;99.90;;;;;;5022553;28;20205;-88
2023/02/15 08:16:52;;;;;;;23.00;17.53;;;1.80;99.90;;;;;;5017841;28;20287;-88
2023/02/15 08:19:24;;;;;;;23.00;16.93;;;2.10;99.90;;;;;;5019158;28;20280;-88
2023/02/15 08:21:56;;;;;;;21.57;16.93;;;2.20;99.90;;;;;;5031577;28;20185;-89
2023/02/15 08:24:24;;;;;;;23.30;17.33;;;2.20;99.90;;;;;;5026500;28;20190;-88
2023/02/15 08:26:51;;;;;;;21.37;16.30;;;2.30;99.90;;;;;;5023608;28;20185;-86
2023/02/15 08:29:21;;;;;;;23.47;17.67;;;2.40;99.90;;;;;;5015817;28;20189;-90
2023/02/15 08:31:47;;;;;;;24.30;18.73;;;2.30;99.90;;;;;;5016866;28;20177;-89
2023/02/15 08:34:17;;;;;;;27.50;18.83;;;2.30;99.90;;;;;;5016227;28;20185;-87
2023/02/15 08:36:45;;;;;;;26.63;18.47;;;2.30;99.90;;;;;;5017225;28;20824;-87
2023/02/15 08:39:11;;;;;;;25.97;19.90;;;1.80;99.90;;;;;;5019743;28;20778;-87
2023/02/15 08:41:39;;;;;;;28.87;19.77;;;1.80;99.90;;;;;;5019164;28;20272;-88
2023/02/15 08:44:06;;;;;;;25.90;18.23;;;1.90;99.90;;;;;;5024820;28;20208;-88
2023/02/15 08:46:35;;;;;;;29.07;18.83;;;2.10;99.90;;;;;;5025897;28;20185;-87
2023/02/15 08:49:01;;;;;;;24.00;18.03;;;2.20;99.90;;;;;;5024352;28;20180;-87
2023/02/15 08:51:29;;;;;;;23.73;17.50;;;2.30;99.90;;;;;;5037935;28;20276;-87
2023/02/15 08:53:57;;;;;;;28.17;19.90;;;2.50;99.90;;;;;;5030968;28;20287;-88
2023/02/15 08:56:29;;;;;;;26.70;18.33;;;2.60;99.90;;;;;;5032318;28;20215;-86
2023/02/15 08:58:56;;;;;;;30.03;21.30;;;2.50;99.90;;;;;;5022048;28;20282;-88
2023/02/15 09:01:27;;;;;;;41.57;23.40;;;2.10;99.90;;;;;;5029098;28;20178;-88
2023/02/15 09:03:59;;;;;;;31.60;21.90;;;1.80;99.90;;;;;;5024433;28;20223;-88
2023/02/15 09:06:26;;;;;;;36.13;23.83;;;1.70;99.90;;;;;;5021008;28;20201;-87
2023/02/15 09:08:53;;;;;;;31.30;21.40;;;1.50;99.90;;;;;;5026217;28;20232;-88
2023/02/15 09:11:25;;;;;;;32.93;21.77;;;1.50;99.90;;;;;;5037286;28;20651;-88
2023/02/15 09:14:08;;;;;;;29.33;20.83;;;1.60;99.90;;;;;;5035669;28;20204;-88
2023/02/15 09:16:36;;;;;;;29.27;21.70;;;1.60;99.90;;;;;;5023415;28;20209;-88
2023/02/15 09:19:04;;;;;;;30.37;21.63;;;1.80;99.90;;;;;;5025041;28;20178;-88
2023/02/15 09:21:30;;;;;;;36.63;21.20;;;1.90;99.90;;;;;;5030664;28;20170;-88
2023/02/15 09:23:59;;;;;;;29.40;20.20;;;1.90;99.90;;;;;;5018312;28;20257;-88
2023/02/15 09:26:26;;;;;;;29.90;20.10;;;2.00;99.90;;;;;;5028455;28;20184;-91
2023/02/15 09:28:55;;;;;;;27.27;20.47;;;2.20;99.90;;;;;;5026620;28;20216;-88
2023/02/15 09:31:23;;;;;;;24.77;17.80;;;2.30;99.90;;;;;;5032512;28;20182;-89
2023/02/15 09:33:49;;;;;;;28.23;19.60;;;2.40;99.90;;;;;;5017449;28;20213;-89
2023/02/15 09:36:23;;;;;;;23.23;18.70;;;2.60;99.90;;;;;;5022243;28;20217;-89
2023/02/15 09:38:56;;;;;;;25.67;18.10;;;2.70;99.90;;;;;;5039965;28;20169;-88
2023/02/15 09:41:43;;;;;;;23.93;18.93;;;2.80;99.90;;;;;;5025194;28;20255;-88
2023/02/15 09:44:24;;;;;;;27.17;17.93;;;2.70;99.90;;;;;;5041227;28;20184;-89
2023/02/15 09:47:22;;;;;;;26.67;18.80;;;2.80;99.90;;;;;;5047407;28;20170;-89
2023/02/15 09:50:06;;;;;;;26.87;18.90;;;2.80;99.90;;;;;;5036674;28;20169;-88
2023/02/15 09:52:34;;;;;;;29.13;20.47;;;2.80;99.90;;;;;;5044845;28;20205;-88
2023/02/15 09:55:09;;;;;;;26.57;19.90;;;2.50;99.90;;;;;;5023014;28;20233;-91
2023/02/15 09:57:46;;;;;;;31.90;21.87;;;2.40;99.90;;;;;;5021425;28;20208;-87
2023/02/15 10:00:34;;;;;;;28.37;19.23;;;2.20;99.90;;;;;;5021746;28;20185;-88
2023/02/15 10:03:12;;;;;;;28.50;19.57;;;2.40;99.90;;;;;;5033314;28;20213;-88
2023/02/15 10:05:43;;;;;;;27.63;20.90;;;2.50;99.90;;;;;;5024333;28;20237;-87
2023/02/15 10:08:45;;;;;;;27.03;20.63;;;2.70;99.90;;;;;;5036910;28;20189;-85
2023/02/15 10:11:38;;;;;;;30.70;21.53;;;2.40;99.90;;;;;;5019421;28;20189;-89
2023/02/15 10:14:07;;;;;;;28.53;21.23;;;2.30;99.90;;;;;;5026334;28;20201;-89
2023/02/15 10:16:35;;;;;;;32.00;22.70;;;2.30;99.90;;;;;;5036994;28;20205;-88
2023/02/15 10:19:17;;;;;;;32.83;22.87;;;2.00;99.90;;;;;;5037977;28;20183;-89
2023/02/15 10:22:03;;;;;;;33.70;23.43;;;1.90;99.90;;;;;;5029387;28;20268;-88
2023/02/15 10:24:46;;;;;;;28.33;20.80;;;1.90;99.90;;;;;;5016196;28;20181;-88
2023/02/15 10:27:18;;;;;;;28.67;19.83;;;2.10;99.90;;;;;;5019835;28;20205;-88
2023/02/15 10:30:10;;;;;;;26.83;19.73;;;2.40;99.90;;;;;;5020316;28;20185;-88
2023/02/15 10:33:08;;;;;;;26.53;19.53;;;2.60;99.90;;;;;;5033968;28;20235;-88
2023/02/15 10:35:34;;;;;;;28.50;21.40;;;2.90;99.90;;;;;;5019637;28;20193;-88
2023/02/15 10:38:25;;;;;;;30.77;21.97;;;3.00;99.90;;;;;;5020330;28;20300;-88
2023/02/15 10:41:09;;;;;;;27.10;21.17;;;3.00;99.90;;;;;;5042283;28;20165;-91
2023/02/15 10:43:58;;;;;;;30.70;21.90;;;2.60;99.90;;;;;;5044260;28;20195;-92
2023/02/15 10:46:36;;;;;;;30.10;22.10;;;2.20;99.90;;;;;;5042438;28;20169;-90
2023/02/15 10:49:35;;;;;;;31.77;23.07;;;1.90;99.90;;;;;;5035157;28;20193;-88
2023/02/15 10:52:01;;;;;;;30.20;21.80;;;2.00;99.90;;;;;;5035857;28;20192;-89
2023/02/15 10:54:56;;;;;;;29.60;21.17;;;2.30;99.90;;;;;;5040709;28;20266;-87
2023/02/15 10:57:41;;;;;;;29.17;21.07;;;2.50;99.90;;;;;;5029591;28;20201;-88
2023/02/15 11:00:38;;;;;;;32.93;25.07;;;2.60;99.90;;;;;;5022648;28;20261;-88
2023/02/15 11:03:39;;;;;;;29.47;22.30;;;2.80;99.90;;;;;;5034707;28;20755;-87
2023/02/15 11:06:14;;;;;;;31.77;22.90;;;3.00;99.90;;;;;;5026436;28;20667;-87
2023/02/15 11:08:44;;;;;;;30.37;24.47;;;3.20;99.90;;;;;;5024910;28;20180;-88
2023/02/15 11:11:29;;;;;;;31.17;21.60;;;3.30;99.90;;;;;;5037096;28;20228;-87
2023/02/15 11:14:01;;;;;;;28.37;20.77;;;3.30;99.90;;;;;;5021915;28;20218;-89
2023/02/15 11:16:38;;;;;;;37.63;26.03;;;3.10;99.90;;;;;;5037161;28;20280;-87
2023/02/15 11:19:14;;;;;;;36.40;23.70;;;3.00;99.90;;;;;;5037933;28;20172;-87
2023/02/15 11:21:56;;;;;;;30.20;23.37;;;3.00;99.90;;;;;;5039334;28;20915;-86
2023/02/15 11:24:25;;;;;;;33.47;24.27;;;3.20;99.90;;;;;;5034890;28;20169;-87
2023/02/15 11:27:02;;;;;;;35.50;25.13;;;3.00;99.90;;;;;;5041261;28;20188;-88
2023/02/15 11:29:44;;;;;;;38.10;25.77;;;3.00;99.90;;;;;;5036272;28;20178;-87
2023/02/15 11:32:28;;;;;;;36.57;25.20;;;3.00;99.90;;;;;;5019465;28;20248;-87
2023/02/15 11:35:22;;;;;;;36.43;25.27;;;2.90;99.90;;;;;;5020258;28;20200;-85
2023/02/15 11:37:56;;;;;;;39.67;27.67;;;3.10;99.90;;;;;;5020066;28;20260;-85
2023/02/15 11:40:41;;;;;;;37.87;25.83;;;2.80;99.90;;;;;;5020228;28;20276;-87
2023/02/15 11:43:35;;;;;;;36.33;24.43;;;2.80;99.90;;;;;;5019871;28;20273;-88
2023/02/15 11:46:01;;;;;;;34.33;24.40;;;3.10;99.90;;;;;;5018040;28;20257;-87
2023/02/15 11:48:31;;;;;;;31.70;22.90;;;3.20;99.90;;;;;;5036751;28;20217;-87
2023/02/15 11:50:56;;;;;;;36.67;24.90;;;3.40;99.90;;;;;;5029458;28;20186;-86
2023/02/15 11:53:27;;;;;;;34.23;25.10;;;3.60;99.90;;;;;;5016559;28;20236;-87
2023/02/15 11:55:54;;;;;;;36.07;24.47;;;3.40;99.90;;;;;;5014815;28;20666;-88
2023/02/15 11:58:40;;;;;;;35.80;24.93;;;3.50;99.90;;;;;;5019706;28;20430;-88
2023/02/15 12:01:23;;;;;;;37.47;25.77;;;3.60;99.90;;;;;;5018560;28;20585;-88
2023/02/15 12:03:50;;;;;;;34.53;25.03;;;3.10;99.90;;;;;;5024184;28;20221;-86
2023/02/15 12:06:28;;;;;;;33.63;24.60;;;2.90;99.90;;;;;;5021209;28;20224;-91
2023/02/15 12:09:16;;;;;;;44.13;27.17;;;3.10;99.90;;;;;;5036396;28;20173;-90
2023/02/15 12:11:42;;;;;;;40.83;26.73;;;3.00;99.90;;;;;;5036461;28;20181;-90
2023/02/15 12:14:11;;;;;;;45.13;28.90;;;2.80;99.90;;;;;;5034569;28;20629;-88
2023/02/15 12:16:45;;;;;;;40.40;27.23;;;2.80;99.90;;;;;;5037156;28;20308;-88
2023/02/15 12:19:39;;;;;;;37.63;25.57;;;2.80;99.90;;;;;;5024037;28;20253;-88
2023/02/15 12:22:06;;;;;;;34.73;25.53;;;2.90;99.90;;;;;;5036894;28;20205;-87
2023/02/15 12:24:46;;;;;;;36.73;25.53;;;2.80;99.90;;;;;;5035153;28;20680;-87
2023/02/15 12:27:20;;;;;;;36.00;26.60;;;2.90;99.90;;;;;;5036986;28;20188;-88
2023/02/15 12:29:50;;;;;;;34.67;26.97;;;3.00;99.90;;;;;;5036104;28;20180;-87
2023/02/15 12:32:24;;;;;;;36.60;25.60;;;3.30;99.90;;;;;;5036713;28;20193;-87
2023/02/15 12:34:54;;;;;;;32.63;24.97;;;3.50;99.90;;;;;;5035042;28;20165;-89
2023/02/15 12:37:25;;;;;;;34.97;25.67;;;3.60;99.90;;;;;;5037101;28;20204;-88
2023/02/15 12:39:54;;;;;;;32.60;24.30;;;3.70;99.90;;;;;;5036910;28;20158;-88
2023/02/15 12:42:19;;;;;;;36.17;25.93;;;3.90;99.90;;;;;;5035635;28;20192;-90
2023/02/15 12:45:22;;;;;;;32.43;24.90;;;3.90;99.90;;;;;;5033769;28;20181;-88
2023/02/15 12:48:07;;;;;;;39.50;25.77;;;3.90;99.20;;;;;;5037422;28;20189;-87
2023/02/15 12:50:33;;;;;;;38.57;30.13;;;3.90;98.20;;;;;;5036321;28;20256;-87
2023/02/15 12:53:20;;;;;;;34.43;25.10;;;4.00;98.20;;;;;;5021942;28;20237;-87
2023/02/15 12:56:02;;;;;;;38.70;25.87;;;4.00;97.20;;;;;;5016586;28;20193;-87
2023/02/15 12:58:33;;;;;;;34.33;24.87;;;3.70;99.90;;;;;;5017708;28;20182;-88
2023/02/15 13:01:14;;;;;;;35.00;25.17;;;3.90;99.90;;;;;;5014942;28;20722;-88
2023/02/15 13:04:05;;;;;;;34.57;25.47;;;4.30;97.00;;;;;;5031289;28;20302;-88
2023/02/15 13:06:34;;;;;;;32.00;25.33;;;4.50;95.50;;;;;;5034813;28;20196;-88
2023/02/15 13:09:17;;;;;;;34.33;25.17;;;4.60;93.70;;;;;;5025482;28;20778;-88
2023/02/15 13:11:45;;;;;;;34.57;25.70;;;4.40;94.90;;;;;;5019963;28;20276;-90
2023/02/15 13:14:21;;;;;;;32.00;24.50;;;4.40;95.70;;;;;;5019787;28;20184;-88
2023/02/15 13:16:53;;;;;;;32.57;23.77;;;4.60;95.50;;;;;;5019381;28;20209;-87
2023/02/15 13:19:26;;;;;;;33.50;25.70;;;4.90;94.20;;;;;;5020070;28;20178;-88
2023/02/15 13:21:54;;;;;;;30.53;24.40;;;4.80;92.80;;;;;;5034996;28;20178;-88